Country
Station

 

Weather  for  Yosu Airport  -  Korea (Republic of)    Korea (Republic of)

  
7 °C (45 °F)
    
 
 

Current METAR for Yosu Airport is :

RKJY 210740Z 24001KT 2500 RA BR SCT010 BKN025 OVC070 07/06 Q1016 NOSIG

 

This is a report for Yosu Airport - Korea (Republic of).
 
The report was made 659 hours and 10 minutes ago, at 07:40 UTC .
The wind was blowing at a speed of 0.5 meters per second (1.2 miles per hour) from west/southwest (240°).
 
The temperature was 7 °C (45 °F), with a dew-point at 6 °C (43 °F).
The atmospheric pressure was 1016 hPa (30.00 inHg).
The relative humidity was 93.3%.
 
There were scattered clouds at a height of 305 meters (1000 feet) and broken clouds at a height of 762 meters (2500 feet). The sky was overcast from a height of 2134 meter (7000 feet)
 
The overall visibility was 2500 meter (8202 feet).
 
Currently moderate rain plus mist.

 
 
 
 

Country :   A   B   C   D   E   F   G   H   I   J   K   L   M   N   O   P   Q   R   S   T   U   V   W   Y   Z

 

Site Info  |  Disclaimer  |  Credits  |  Privacy
Contact us  |  Add to favorites
© 2013-2018 METARs - All rights reserved